La Belle Poule — FBPU — position and weather

sailwx.info

Track history (hours):
 
Tides and Currents Weather Stations Pressure Air Temp Water Temp Dewpoint Dewpoint Depression Visibility Wind Speed Wind Dir Waves Ship Positions

La Belle Poule (France)

Ship's website: http://www.defense.gouv.fr/english/portail-defense

Last reported at 2020-Jul-09 20:00 UTC. Time now 2020-Jul-09 20:38 UTC.
Position N 47°20' W 002°51'.

; draft 3.6 m.

Type: Sailing vessel. MMSI: 228796000.

Date/timePositionNaut miles runAvg speedWind from/ knotsBaromVisibWave heightAir tempDewpointWater temp
2020-Jul-09 20:00N 47°20' W 002°51'0 0.0
2020-Jul-09 16:00N 47°20' W 002°51'2 1.5
2020-Jul-09 15:00N 47°19' W 002°50'17 6.4
2020-Jul-09 12:25N 47°05' W 002°36'7 6.1
2020-Jul-09 11:14N 46°59' W 002°31'2 3.3
2020-Jul-09 10:30N 46°57' W 002°30'7 4.4
2020-Jul-09 09:00N 46°51' W 002°25'3 5.5
2020-Jul-09 08:30N 46°48' W 002°24'5 3.4
2020-Jul-09 07:00N 46°44' W 002°20'0 0.2
2020-Jul-09 06:00N 46°44' W 002°20'3 0.3
2020-Jul-08 22:00N 46°41' W 002°19'0 0.0
2020-Jul-08 20:30N 46°41' W 002°19'1 0.3
2020-Jul-08 15:25N 46°41' W 002°17'56 5.7
2020-Jul-08 05:30N 46°09' W 001°09'0 0.0
2020-Jul-06 04:31N 46°09' W 001°09'0 0.0
2020-Jul-06 03:00N 46°09' W 001°09'0 0.0
2020-Jul-06 02:31N 46°09' W 001°09'0 0.0
2020-Jul-06 01:30N 46°09' W 001°09'0 0.0
2020-Jul-05 22:00N 46°09' W 001°09'0 0.0
2020-Jul-05 20:01N 46°09' W 001°09'1 0.2
2020-Jul-05 16:01N 46°09' W 001°10'2 3.8
2020-Jul-05 15:30N 46°08' W 001°13'8 2.6
2020-Jul-05 12:30N 46°00' W 001°11'0 0.0
2020-Jul-05 10:30N 46°00' W 001°11'2 0.3
2020-Jul-05 05:01N 46°01' W 001°09'0 0.0
2020-Jul-05 04:00N 46°01' W 001°09'0 0.0
2020-Jul-05 03:00N 46°01' W 001°09'0 0.0
2020-Jul-05 02:00N 46°01' W 001°09'0 0.0
2020-Jul-04 22:30N 46°01' W 001°09'1 0.3
2020-Jul-04 19:46N 46°02' W 001°09'1 2.6
2020-Jul-04 19:30N 46°03' W 001°10'5 4.6
2020-Jul-04 18:30N 46°05' W 001°16'  
2020-Jul-01 13:30N 46°30' W 001°48'  
Track history (hours):
 
Tides and Currents Weather Stations Pressure Air Temp Water Temp Dewpoint Dewpoint Depression Visibility Wind Speed Wind Dir Waves Ship Positions

La Belle Poule (France)

Ship's website: http://www.defense.gouv.fr/english/portail-defense

Last reported at 2020-Jul-09 20:00 UTC. Time now 2020-Jul-09 20:38 UTC.
Position N 47°20' W 002°51'.

; draft 3.6 m.

Type: Sailing vessel. MMSI: 228796000.

Date/timePositionNaut miles runAvg speedWind from/ knotsBaromVisibWave heightAir tempDewpointWater temp
2020-Jul-09 20:00N 47°20' W 002°51'0 0.0
2020-Jul-09 16:00N 47°20' W 002°51'2 1.5
2020-Jul-09 15:00N 47°19' W 002°50'17 6.4
2020-Jul-09 12:25N 47°05' W 002°36'7 6.1
2020-Jul-09 11:14N 46°59' W 002°31'2 3.3
2020-Jul-09 10:30N 46°57' W 002°30'7 4.4
2020-Jul-09 09:00N 46°51' W 002°25'3 5.5
2020-Jul-09 08:30N 46°48' W 002°24'5 3.4
2020-Jul-09 07:00N 46°44' W 002°20'0 0.2
2020-Jul-09 06:00N 46°44' W 002°20'3 0.3
2020-Jul-08 22:00N 46°41' W 002°19'0 0.0
2020-Jul-08 20:30N 46°41' W 002°19'1 0.3
2020-Jul-08 15:25N 46°41' W 002°17'56 5.7
2020-Jul-08 05:30N 46°09' W 001°09'0 0.0
2020-Jul-06 04:31N 46°09' W 001°09'0 0.0
2020-Jul-06 03:00N 46°09' W 001°09'0 0.0
2020-Jul-06 02:31N 46°09' W 001°09'0 0.0
2020-Jul-06 01:30N 46°09' W 001°09'0 0.0
2020-Jul-05 22:00N 46°09' W 001°09'0 0.0
2020-Jul-05 20:01N 46°09' W 001°09'1 0.2
2020-Jul-05 16:01N 46°09' W 001°10'2 3.8
2020-Jul-05 15:30N 46°08' W 001°13'8 2.6
2020-Jul-05 12:30N 46°00' W 001°11'0 0.0
2020-Jul-05 10:30N 46°00' W 001°11'2 0.3
2020-Jul-05 05:01N 46°01' W 001°09'0 0.0
2020-Jul-05 04:00N 46°01' W 001°09'0 0.0
2020-Jul-05 03:00N 46°01' W 001°09'0 0.0
2020-Jul-05 02:00N 46°01' W 001°09'0 0.0
2020-Jul-04 22:30N 46°01' W 001°09'1 0.3
2020-Jul-04 19:46N 46°02' W 001°09'1 2.6
2020-Jul-04 19:30N 46°03' W 001°10'5 4.6
2020-Jul-04 18:30N 46°05' W 001°16'  
2020-Jul-01 13:30N 46°30' W 001°48'  

Dump ship's entire track history